Time;durP1;ratioP1;P1;durP2;ratioP2;P2;SDS_P1;SDS_P2;PMS_P1;PMS_P2;Temp;Humidity;BMP_temperature;BMP_pressure;BME280_temperature;BME280_humidity;BME280_pressure;Samples;Min_cycle;Max_cycle;Signal;HPM_P1;HPM_P2
2022/02/11 00:07:07;;;;;;;9.07;1.70;;;;;;;-142.75;100.00;78647.56;5031516;28;20305;-66
2022/02/11 00:09:34;;;;;;;16.10;1.90;;;;;;;-142.75;100.00;78657.41;5031040;28;20100;-66
2022/02/11 00:11:59;;;;;;;16.73;3.73;;;;;;;-142.75;100.00;78647.56;5031709;28;20055;-65
2022/02/11 00:14:26;;;;;;;11.07;1.70;;;;;;;-142.75;100.00;78639.69;5031354;28;20061;-66
2022/02/11 00:16:52;;;;;;;6.50;1.30;;;;;;;-142.75;100.00;78633.78;5031053;28;20076;-66
2022/02/11 00:19:17;;;;;;;16.95;2.00;;;;;;;-142.75;100.00;78625.91;5030951;28;20045;-67
2022/02/11 00:21:42;;;;;;;13.77;1.90;;;;;;;-142.75;100.00;78629.84;5029885;28;20026;-66
2022/02/11 00:24:08;;;;;;;8.88;1.40;;;;;;;-142.75;100.00;78625.91;5029894;28;20057;-66
2022/02/11 00:26:37;;;;;;;15.23;1.55;;;;;;;-142.75;100.00;78629.84;5031039;28;20021;-67
2022/02/11 00:32:18;;;;;;;14.67;1.47;;;;;;;-142.75;100.00;78631.81;5031058;28;20606;-66
2022/02/11 00:34:50;;;;;;;17.53;2.20;;;;;;;-142.75;100.00;78633.78;5030948;28;20024;-66
2022/02/11 00:37:22;;;;;;;12.47;1.60;;;;;;;-142.75;100.00;78614.09;5029703;28;20045;-66
2022/02/11 00:40:10;;;;;;;11.90;1.90;;;;;;;-142.75;100.00;78620.00;5030443;28;20460;-67
2022/02/11 00:53:37;;;;;;;10.87;2.03;;;;;;;-142.75;100.00;78621.97;5030693;28;20040;-67
2022/02/11 01:04:32;;;;;;;12.20;1.80;;;;;;;-142.75;100.00;78618.03;5030555;28;20060;-67
2022/02/11 01:06:57;;;;;;;9.07;1.90;;;;;;;-142.75;100.00;78608.19;5028887;28;20448;-66
2022/02/11 01:09:22;;;;;;;13.85;1.90;;;;;;;-142.75;100.00;78614.09;5029947;28;20426;-67
2022/02/11 01:11:51;;;;;;;16.17;2.33;;;;;;;-142.75;100.00;78606.22;5030717;28;20116;-67
2022/02/11 01:14:19;;;;;;;9.00;1.57;;;;;;;-142.75;100.00;78602.28;5030246;28;20049;-67
2022/02/11 01:16:52;;;;;;;14.23;2.20;;;;;;;-142.75;100.00;78604.25;5029932;28;20530;-67
2022/02/11 01:21:55;;;;;;;9.43;1.90;;;;;;;-142.75;100.00;78594.41;5030202;28;20029;-67
2022/02/11 01:34:57;;;;;;;9.50;2.20;;;;;;;-142.75;100.00;78621.97;5030240;28;20278;-66
2022/02/11 01:37:37;;;;;;;14.40;1.93;;;;;;;-142.75;100.00;78625.91;5029904;28;20029;-67
2022/02/11 01:56:07;;;;;;;9.63;2.20;;;;;;;-142.75;100.00;78653.47;5029631;28;20515;-68
2022/02/11 02:01:53;;;;;;;12.07;1.90;;;;;;;-142.75;100.00;78665.28;5029553;28;20586;-67
2022/02/11 02:12:31;;;;;;;13.13;2.10;;;;;;;-142.75;100.00;78639.69;5029840;28;20044;-66
2022/02/11 02:18:05;;;;;;;17.07;2.57;;;;;;;-142.75;100.00;78627.88;5029405;28;20037;-67
2022/02/11 02:28:04;;;;;;;11.60;2.22;;;;;;;-142.75;100.00;78618.03;5029396;28;20715;-67
2022/02/11 02:36:22;;;;;;;13.60;2.00;;;;;;;-142.75;100.00;78606.22;5033354;28;20103;-67
2022/02/11 02:57:53;;;;;;;14.30;2.37;;;;;;;-142.75;100.00;78635.75;5032838;28;20051;-66
2022/02/11 03:55:22;;;;;;;14.73;1.97;;;;;;;-142.75;100.00;78785.44;5031996;28;20848;-67
2022/02/11 04:59:46;;;;;;;13.97;1.87;;;;;;;-142.75;100.00;78824.84;5055492;28;20029;-65
2022/02/11 05:02:11;;;;;;;14.43;3.10;;;;;;;-142.75;100.00;78826.81;5049835;28;20544;-66
2022/02/11 05:04:36;;;;;;;24.20;2.80;;;;;;;-142.75;100.00;78846.50;5060781;28;20017;-66
2022/02/11 05:07:03;;;;;;;21.13;2.85;;;;;;;-142.75;100.00;78850.44;5053101;28;20104;-66
2022/02/11 05:09:29;;;;;;;13.03;2.40;;;;;;;-142.75;100.00;78864.22;5048854;28;20462;-66
2022/02/11 05:11:55;;;;;;;;;;;;;;;-142.75;100.00;78870.13;5052729;28;20029;-67
2022/02/11 05:14:20;;;;;;;17.03;2.37;;;;;;;-142.75;100.00;78870.13;5050137;28;19912;-66
2022/02/11 05:16:45;;;;;;;19.05;2.65;;;;;;;-142.75;100.00;78872.09;5050058;28;20162;-66
2022/02/11 05:19:10;;;;;;;13.80;2.53;;;;;;;-142.75;100.00;78881.94;5063263;28;20039;-67
2022/02/11 05:21:36;;;;;;;19.20;2.10;;;;;;;-142.75;100.00;78889.81;5068608;28;20286;-66
2022/02/11 05:24:02;;;;;;;19.55;2.78;;;;;;;-142.75;100.00;78889.81;5069796;28;20020;-67
2022/02/11 05:26:27;;;;;;;28.58;2.90;;;;;;;-142.75;100.00;78893.78;5069953;28;20401;-66
2022/02/11 05:28:53;;;;;;;14.68;2.67;;;;;;;-142.75;100.00;78901.66;5068794;28;20021;-66
2022/02/11 05:31:19;;;;;;;15.03;2.60;;;;;;;-142.75;100.00;78905.59;5050108;28;20039;-66
2022/02/11 05:33:44;;;;;;;14.27;3.17;;;;;;;-142.75;100.00;78921.34;5049026;28;20036;-66
2022/02/11 05:36:09;;;;;;;24.10;3.30;;;;;;;-142.75;100.00;78925.28;5049908;28;20271;-66
2022/02/11 05:38:35;;;;;;;14.15;3.10;;;;;;;-142.75;100.00;78929.22;5049240;28;20287;-66
2022/02/11 05:41:00;;;;;;;19.97;3.13;;;;;;;-142.75;100.00;78933.16;5050369;28;20021;-66
2022/02/11 05:43:25;;;;;;;12.47;2.47;;;;;;;-142.75;100.00;78935.13;5050831;28;20275;-66
2022/02/11 05:45:51;;;;;;;15.48;2.80;;;;;;;-142.75;100.00;78941.03;5050553;28;20275;-65
2022/02/11 05:48:16;;;;;;;14.02;2.25;;;;;;;-142.75;100.00;78944.97;5048474;28;20012;-66
2022/02/11 05:50:41;;;;;;;13.37;2.07;;;;;;;-142.75;100.00;78946.94;5049861;28;20109;-66
2022/02/11 05:53:08;;;;;;;13.90;2.13;;;;;;;-142.75;100.00;78956.78;5049801;28;20768;-66
2022/02/11 05:55:34;;;;;;;18.97;3.47;;;;;;;-142.75;100.00;78944.97;5049862;28;20033;-66
2022/02/11 05:57:59;;;;;;;17.27;2.10;;;;;;;-142.75;100.00;78976.50;5048706;28;20067;-66
2022/02/11 06:00:26;;;;;;;10.95;2.05;;;;;;;-142.75;100.00;78984.38;5049489;28;20107;-66
2022/02/11 06:02:51;;;;;;;;;;;;;;;-142.75;100.00;78984.38;5063781;28;20059;-66
2022/02/11 06:05:16;;;;;;;14.53;1.90;;;;;;;-142.75;100.00;79000.13;5069723;28;19948;-66
2022/02/11 06:07:42;;;;;;;9.57;1.60;;;;;;;-142.75;100.00;79004.06;5069125;28;20024;-66
2022/02/11 06:10:08;;;;;;;17.92;1.85;;;;;;;-142.75;100.00;79008.00;5069179;28;20054;-66
2022/02/11 06:12:33;;;;;;;9.30;1.50;;;;;;;-142.75;100.00;79011.94;5069680;28;20051;-66
2022/02/11 06:14:59;;;;;;;13.73;2.47;;;;;;;-142.75;100.00;79023.75;5069149;28;20036;-66
2022/02/11 06:17:24;;;;;;;6.35;1.58;;;;;;;-142.75;100.00;79027.69;5067906;28;20025;-65
2022/02/11 06:19:50;;;;;;;18.67;2.07;;;;;;;-142.75;100.00;79041.50;5068713;28;20398;-66
2022/02/11 06:22:16;;;;;;;18.37;2.50;;;;;;;-142.75;100.00;79053.31;5069160;28;20302;-66
2022/02/11 06:24:41;;;;;;;18.40;2.10;;;;;;;-142.75;100.00;79063.16;5069223;28;20046;-67
2022/02/11 06:27:07;;;;;;;12.23;2.30;;;;;;;-142.75;100.00;79071.03;5069710;28;20028;-66
2022/02/11 06:29:33;;;;;;;15.00;2.28;;;;;;;-142.75;100.00;79065.13;5069615;28;20016;-66
2022/02/11 06:31:58;;;;;;;15.73;2.25;;;;;;;-142.75;100.00;79074.97;5070400;28;20103;-66
2022/02/11 06:34:24;;;;;;;13.98;1.88;;;;;;;-142.75;100.00;79074.97;5070442;28;20056;-66
2022/02/11 06:36:49;;;;;;;20.45;2.67;;;;;;;-142.75;100.00;79082.84;5068931;28;20506;-66
2022/02/11 06:39:14;;;;;;;11.10;2.23;;;;;;;-142.75;100.00;79078.91;5068764;28;20021;-66
2022/02/11 06:41:39;;;;;;;18.03;2.77;;;;;;;-142.75;100.00;79090.72;5070149;28;20812;-66
2022/02/11 06:44:05;;;;;;;13.85;2.20;;;;;;;-142.75;100.00;79092.69;5070316;28;20028;-66
2022/02/11 06:46:30;;;;;;;28.08;4.65;;;;;;;-142.75;100.00;79096.66;5070204;28;20024;-66
2022/02/11 06:48:55;;;;;;;15.02;2.35;;;;;;;-142.75;100.00;79090.72;5069803;28;20379;-66
2022/02/11 06:51:20;;;;;;;24.13;3.50;;;;;;;-142.75;100.00;79082.84;5070281;28;20107;-66
2022/02/11 06:53:46;;;;;;;13.80;3.23;;;;;;;-142.75;100.00;79094.69;5070177;28;20768;-66
2022/02/11 06:56:11;;;;;;;14.15;2.33;;;;;;;-142.75;100.00;79100.59;5070104;28;20039;-66
2022/02/11 06:58:36;;;;;;;18.48;2.67;;;;;;;-142.75;100.00;79108.47;5068504;28;20020;-66
2022/02/11 07:01:02;;;;;;;15.75;2.22;;;;;;;-142.75;100.00;79120.28;5070120;28;20527;-67
2022/02/11 07:03:27;;;;;;;14.00;2.05;;;;;;;-142.75;100.00;79130.13;5070179;28;20028;-66
2022/02/11 07:05:56;;;;;;;14.88;2.70;;;;;;;-142.75;100.00;79122.25;5070115;28;20029;-66
2022/02/11 07:08:23;;;;;;;17.47;2.57;;;;;;;-142.75;100.00;79130.13;5069806;28;20024;-68
2022/02/11 07:10:48;;;;;;;11.87;2.00;;;;;;;-142.75;100.00;79143.91;5070034;28;20031;-66
2022/02/11 07:13:14;;;;;;;12.73;2.50;;;;;;;-142.75;100.00;79151.78;5070068;28;20020;-66
2022/02/11 07:15:42;;;;;;;19.58;2.97;;;;;;;-142.75;100.00;79165.59;5070151;28;20059;-66
2022/02/11 07:18:09;;;;;;;26.80;2.90;;;;;;;-142.75;100.00;79157.72;5070730;28;20485;-67
2022/02/11 07:20:35;;;;;;;19.97;3.07;;;;;;;-142.75;100.00;79165.59;5074418;28;20028;-66
2022/02/11 07:23:00;;;;;;;25.38;3.15;;;;;;;-142.75;100.00;79169.53;5074717;28;20025;-68
2022/02/11 07:25:25;;;;;;;15.15;3.30;;;;;;;-142.75;100.00;79165.59;5056474;28;20429;-66
2022/02/11 07:27:51;;;;;;;17.00;2.33;;;;;;;-142.75;100.00;79161.66;5053405;28;20071;-66
2022/02/11 07:30:17;;;;;;;19.73;2.75;;;;;;;-142.75;100.00;79161.66;5053501;28;20021;-65
2022/02/11 07:32:42;;;;;;;;;;;;;;;-142.75;100.00;79175.44;5053973;28;20041;-66
2022/02/11 07:35:08;;;;;;;19.47;2.43;;;;;;;-142.75;100.00;79171.50;5053454;28;19967;-66
2022/02/11 07:37:35;;;;;;;18.05;3.13;;;;;;;-142.75;100.00;79181.34;5060026;28;20079;-66
2022/02/11 07:40:01;;;;;;;16.13;2.53;;;;;;;-142.75;100.00;79187.25;5072981;28;20059;-66
2022/02/11 07:42:26;;;;;;;18.23;2.85;;;;;;;-142.75;100.00;79187.25;5073294;28;20170;-66
2022/02/11 07:44:54;;;;;;;15.32;2.75;;;;;;;-142.75;100.00;79195.13;5073222;28;20485;-66
2022/02/11 07:47:21;;;;;;;14.93;2.13;;;;;;;-142.75;100.00;79203.00;5068891;28;20051;-66
2022/02/11 07:49:46;;;;;;;21.42;2.85;;;;;;;-142.75;100.00;79210.88;5054957;28;20107;-68
2022/02/11 07:52:11;;;;;;;17.07;2.80;;;;;;;-142.75;100.00;79210.88;5053223;28;20021;-66
2022/02/11 07:54:37;;;;;;;24.17;3.42;;;;;;;-142.75;100.00;79220.75;5053646;28;20272;-67
2022/02/11 07:57:03;;;;;;;15.70;3.20;;;;;;;-142.75;100.00;79216.78;5072912;28;20371;-67
2022/02/11 07:59:28;;;;;;;19.15;2.47;;;;;;;-142.75;100.00;79189.22;5071579;28;20028;-65
2022/02/11 08:01:53;;;;;;;8.57;2.53;;;;;;;-142.75;100.00;79165.59;5072954;28;20048;-67
2022/02/11 08:04:19;;;;;;;22.93;3.03;;;;;;;-142.75;100.00;79138.00;5071275;28;20398;-66
2022/02/11 08:06:44;;;;;;;20.45;2.58;;;;;;;-142.75;100.00;79126.19;5071485;28;20335;-66
2022/02/11 08:09:09;;;;;;;16.80;2.70;;;;;;;-142.75;100.00;79124.22;5071642;28;20027;-66
2022/02/11 08:11:35;;;;;;;17.00;2.07;;;;;;;-142.75;100.00;79118.31;5072133;28;20312;-66
2022/02/11 08:14:00;;;;;;;16.37;2.53;;;;;;;-142.75;100.00;79165.59;5071805;28;21628;-66
2022/02/11 08:16:26;;;;;;;11.77;1.83;;;;;;;-142.75;100.00;79193.16;5053003;28;20028;-68
2022/02/11 08:18:51;;;;;;;16.13;2.75;;;;;;;-142.75;100.00;79238.47;5051464;28;20047;-67
2022/02/11 08:21:17;;;;;;;26.00;3.35;;;;;;;-142.75;100.00;79277.88;5051183;28;20029;-67
2022/02/11 08:23:43;;;;;;;22.10;2.78;;;;;;;-142.75;100.00;79281.81;5051844;28;20112;-68
2022/02/11 08:26:10;;;;;;;13.25;2.53;;;;;;;-142.75;100.00;79303.47;5051723;28;20090;-66
2022/02/11 08:28:36;;;;;;;17.37;2.50;;;;;;;-142.75;100.00;79327.09;5050105;28;20021;-67
2022/02/11 08:31:01;;;;;;;21.75;3.22;;;;;;;-142.75;100.00;79342.88;5051710;28;20040;-67
2022/02/11 08:33:27;;;;;;;17.50;3.03;;;;;;;-142.75;100.00;79352.72;5051466;28;20029;-66
2022/02/11 08:35:54;;;;;;;28.00;3.03;;;;;;;-142.75;100.00;79340.91;5051082;28;20025;-66
2022/02/11 08:38:21;;;;;;;12.93;2.30;;;;;;;-142.75;100.00;79303.47;5050881;28;20319;-68
2022/02/11 08:40:47;;;;;;;13.70;2.13;;;;;;;-142.75;100.00;79256.19;5051216;28;20040;-67
2022/02/11 08:43:13;;;;;;;18.15;2.30;;;;;;;-142.75;100.00;79275.88;5051390;28;20478;-66
2022/02/11 08:45:40;;;;;;;12.32;2.13;;;;;;;-142.75;100.00;79268.00;5051322;28;20052;-66
2022/02/11 08:48:07;;;;;;;12.27;2.27;;;;;;;-142.75;100.00;79206.94;5050846;28;20028;-65
2022/02/11 08:50:33;;;;;;;13.40;2.23;;;;;;;-142.75;100.00;79161.66;5054591;28;20056;-66
2022/02/11 08:52:58;;;;;;;22.55;3.05;;;;;;;-142.75;100.00;79078.91;5058278;28;20083;-66
2022/02/11 08:55:23;;;;;;;16.15;2.10;;;;;;;-142.75;100.00;79063.16;5052233;28;20131;-66
2022/02/11 08:57:52;;;;;;;11.95;1.95;;;;;;;-142.75;100.00;79047.41;5070749;28;20115;-66
2022/02/11 09:00:18;;;;;;;16.17;2.03;;;;;;;-142.75;100.00;79023.75;5071150;28;20028;-66
2022/02/11 09:02:43;;;;;;;9.88;2.17;;;;;;;-142.75;100.00;79002.09;5071001;28;20552;-66
2022/02/11 09:05:09;;;;;;;15.30;1.88;;;;;;;-142.75;100.00;78972.56;5070403;28;20024;-66
2022/02/11 09:07:34;;;;;;;12.38;2.33;;;;;;;-142.75;100.00;78929.22;5070543;28;20028;-68
2022/02/11 09:10:00;;;;;;;24.67;2.90;;;;;;;-142.75;100.00;78905.59;5070314;28;20087;-67
2022/02/11 09:12:25;;;;;;;14.05;1.73;;;;;;;-142.75;100.00;78885.88;5070073;28;20371;-68
2022/02/11 09:14:51;;;;;;;10.90;1.77;;;;;;;-142.75;100.00;78852.41;5070004;28;20470;-67
2022/02/11 09:17:16;;;;;;;14.35;1.98;;;;;;;-142.75;100.00;78820.88;5069195;28;20150;-68
2022/02/11 09:19:41;;;;;;;19.35;2.72;;;;;;;-142.75;100.00;78799.22;5070054;28;20079;-67
2022/02/11 09:22:06;;;;;;;15.25;2.60;;;;;;;-142.75;100.00;78814.97;5069196;28;20556;-67
2022/02/11 09:24:32;;;;;;;11.47;2.00;;;;;;;-142.75;100.00;78809.06;5070531;28;20024;-68
2022/02/11 09:26:57;;;;;;;10.57;1.90;;;;;;;-142.75;100.00;78807.09;5070230;28;20278;-68
2022/02/11 09:29:22;;;;;;;12.95;2.28;;;;;;;-142.75;100.00;78805.13;5070063;28;20278;-68
2022/02/11 09:31:48;;;;;;;15.68;1.80;;;;;;;-142.75;100.00;78787.41;5070217;28;20024;-68
2022/02/11 09:34:14;;;;;;;14.90;1.55;;;;;;;-142.75;100.00;78787.41;5070156;28;20020;-67
2022/02/11 09:36:40;;;;;;;15.63;2.40;;;;;;;-142.75;100.00;78771.66;5070033;28;20028;-68
2022/02/11 09:39:08;;;;;;;14.30;1.80;;;;;;;-142.75;100.00;78769.69;5069921;28;20029;-67
2022/02/11 09:41:38;;;;;;;16.07;1.87;;;;;;;-142.75;100.00;78732.25;5069982;28;20111;-67
2022/02/11 09:44:05;;;;;;;9.63;2.08;;;;;;;-142.75;100.00;78700.75;5065564;28;20032;-68
2022/02/11 09:46:32;;;;;;;10.30;1.90;;;;;;;-142.75;100.00;78675.16;5049858;28;20028;-67
2022/02/11 09:48:58;;;;;;;16.58;2.42;;;;;;;-142.75;100.00;78661.34;5049674;28;20025;-67
2022/02/11 09:51:24;;;;;;;9.10;2.13;;;;;;;-142.75;100.00;78653.47;5050030;28;20029;-67
2022/02/11 09:53:49;;;;;;;13.55;1.63;;;;;;;-142.75;100.00;78645.59;5049835;28;20033;-68
2022/02/11 09:56:15;;;;;;;11.75;1.73;;;;;;;-142.75;100.00;78694.84;5050033;28;20024;-67
2022/02/11 09:58:41;;;;;;;;;;;;;;;-142.75;100.00;78842.56;5049671;28;20028;-66
2022/02/11 10:01:07;;;;;;;11.68;1.88;;;;;;;-142.75;100.00;78948.91;5049917;28;19913;-67
2022/02/11 10:03:32;;;;;;;14.57;1.75;;;;;;;-142.75;100.00;79000.13;5050046;28;20017;-66
2022/02/11 10:06:05;;;;;;;15.82;2.10;;;;;;;-142.75;100.00;79098.63;5049567;28;20533;-68
2022/02/11 10:08:37;;;;;;;11.03;1.50;;;;;;;-142.75;100.00;79037.56;5049283;28;20025;-68
2022/02/11 10:11:05;;;;;;;12.37;2.40;;;;;;;-142.75;100.00;78954.81;5049770;28;20557;-68
2022/02/11 10:13:33;;;;;;;11.37;1.80;;;;;;;-142.75;100.00;78899.69;5049822;28;20025;-68
2022/02/11 10:16:10;;;;;;;8.73;1.93;;;;;;;-142.75;100.00;78818.91;5049389;28;20040;-66
2022/02/11 10:18:42;;;;;;;10.53;1.60;;;;;;;-142.75;100.00;78797.25;5049457;28;20025;-66
2022/02/11 10:21:12;;;;;;;10.77;1.63;;;;;;;-142.75;100.00;78771.66;5049660;28;20025;-67
2022/02/11 10:23:41;;;;;;;11.30;1.77;;;;;;;-142.75;100.00;78726.34;5048563;28;20033;-68
2022/02/11 10:26:17;;;;;;;8.48;1.58;;;;;;;-142.75;100.00;78683.03;5049409;28;20086;-68
2022/02/11 10:28:44;;;;;;;;;;;;;;;-142.75;96.24;78669.25;5048283;28;20029;-69
2022/02/11 10:31:23;;;;;;;12.43;1.30;;;;;;;-142.75;95.05;78677.13;5049599;28;20316;-68
2022/02/11 10:33:52;;;;;;;9.18;1.50;;;;;;;-142.75;89.63;78633.78;5047881;28;20029;-68
2022/02/11 10:36:38;;;;;;;12.82;1.80;;;;;;;-142.75;86.08;78681.06;5047857;28;20530;-69
2022/02/11 10:39:08;;;;;;;8.88;1.13;;;;;;;-142.75;79.61;78661.34;5047309;28;20414;-68
2022/02/11 10:41:46;;;;;;;6.72;1.35;;;;;;;-142.75;83.91;78635.75;5055956;28;20020;-68
2022/02/11 10:44:16;;;;;;;13.90;1.92;;;;;;;-142.75;82.12;78623.94;5055771;28;20029;-68
2022/02/11 10:46:47;;;;;;;10.55;2.00;;;;;;;-142.75;82.95;78716.50;5053149;28;20032;-68
2022/02/11 10:49:14;;;;;;;11.93;1.45;;;;;;;-142.75;85.86;78669.25;5054781;28;20056;-68
2022/02/11 10:51:45;;;;;;;6.00;1.52;;;;;;;-142.75;84.69;78623.94;5054608;28;20038;-67
2022/02/11 10:54:23;;;;;;;7.22;1.40;;;;;;;-142.75;83.39;78588.50;5054213;28;20029;-68
2022/02/11 10:56:59;;;;;;;10.85;1.80;;;;;;;-142.75;83.07;78555.00;5054540;28;20017;-67
2022/02/11 10:59:35;;;;;;;11.70;1.73;;;;;;;-142.75;83.75;78499.88;5051594;28;20017;-68
2022/02/11 11:02:04;;;;;;;10.55;2.25;;;;;;;-142.75;84.63;78558.94;5053008;28;20029;-68
2022/02/11 11:04:29;;;;;;;11.75;1.90;;;;;;;-142.75;84.54;78531.38;5052773;28;20722;-67
2022/02/11 11:06:56;;;;;;;11.77;2.40;;;;;;;-142.75;87.98;78685.00;5052992;28;20021;-68
2022/02/11 11:09:25;;;;;;;13.13;2.40;;;;;;;-142.75;89.37;78769.69;5054554;28;20031;-67
2022/02/11 11:11:51;;;;;;;16.70;2.60;;;;;;;-142.75;92.61;78811.03;5055420;28;20170;-67
2022/02/11 11:14:18;;;;;;;12.50;1.67;;;;;;;-142.75;89.17;78889.81;5052929;28;20395;-67
2022/02/11 11:16:46;;;;;;;7.65;1.40;;;;;;;-142.75;88.49;78852.41;5053344;28;20395;-68
2022/02/11 11:19:13;;;;;;;7.68;1.80;;;;;;;-142.75;87.19;78783.47;5056484;28;20040;-68
2022/02/11 11:21:48;;;;;;;9.25;1.58;;;;;;;-142.75;81.01;78724.38;5065026;28;20035;-67
2022/02/11 11:24:14;;;;;;;9.48;1.45;;;;;;;-142.75;78.95;78702.72;5059565;28;20028;-68
2022/02/11 11:26:45;;;;;;;8.43;1.55;;;;;;;-142.75;78.03;78663.31;5065629;28;20032;-67
2022/02/11 11:29:15;;;;;;;7.72;1.33;;;;;;;-142.75;76.03;78755.91;5072105;28;20024;-68
2022/02/11 11:31:58;;;;;;;6.38;1.20;;;;;;;-142.75;80.13;78763.78;5072535;28;20035;-68
2022/02/11 11:34:28;;;;;;;11.77;1.70;;;;;;;-142.75;77.69;78789.38;5071504;28;20051;-68
2022/02/11 11:36:59;;;;;;;11.18;1.73;;;;;;;-142.75;76.55;78775.59;5072299;28;20033;-68
2022/02/11 11:39:24;;;;;;;9.20;1.67;;;;;;;-142.75;75.47;78696.81;5071974;28;20067;-68
2022/02/11 11:42:08;;;;;;;10.15;1.50;;;;;;;-142.75;73.21;78633.78;5072345;28;20028;-68
2022/02/11 11:44:45;;;;;;;9.77;1.35;;;;;;;-142.75;71.41;78598.34;5071893;28;20039;-68
2022/02/11 11:47:37;;;;;;;6.95;1.80;;;;;;;-142.75;66.76;78631.81;5072042;28;20039;-68
2022/02/11 11:50:06;;;;;;;6.47;1.20;;;;;;;-142.75;69.59;78685.00;5071738;28;20393;-68
2022/02/11 11:52:39;;;;;;;10.93;1.80;;;;;;;-142.75;67.80;78746.03;5071945;28;20025;-68
2022/02/11 11:55:22;;;;;;;7.72;1.30;;;;;;;-142.75;68.00;78720.44;5070655;28;20028;-67
2022/02/11 11:57:48;;;;;;;7.30;1.30;;;;;;;-142.75;67.18;78746.03;5071678;28;20109;-67
2022/02/11 12:00:32;;;;;;;8.15;1.05;;;;;;;-142.75;67.59;78761.81;5071967;28;20052;-70
2022/02/11 12:02:57;;;;;;;6.65;0.85;;;;;;;-142.75;68.71;78716.50;5070457;28;20036;-69
2022/02/11 12:05:41;;;;;;;9.63;1.20;;;;;;;-142.75;65.76;78690.91;5071615;28;20028;-67
2022/02/11 12:08:07;;;;;;;7.72;1.05;;;;;;;-142.75;64.71;78649.53;5071661;28;20281;-67
2022/02/11 12:10:34;;;;;;;5.18;1.17;;;;;;;-142.75;64.53;78576.66;5070651;28;20021;-68
2022/02/11 12:13:00;;;;;;;8.77;0.90;;;;;;;-142.75;62.43;78535.31;5071740;28;20043;-68
2022/02/11 12:15:26;;;;;;;9.40;1.17;;;;;;;-142.75;60.53;78446.69;5071652;28;20032;-68
2022/02/11 12:17:53;;;;;;;8.68;1.13;;;;;;;-142.75;58.79;78580.59;5071084;28;20406;-68
2022/02/11 12:20:18;;;;;;;4.72;0.90;;;;;;;-142.75;58.17;78596.38;5071725;28;20429;-68
2022/02/11 12:27:19;;;;;;;7.63;1.30;;;;;;;-142.75;60.72;78665.28;5071553;28;20064;-68
2022/02/11 12:28:14;;;;;;;8.15;1.35;;;;;;;-142.75;61.79;78618.03;5071305;28;20467;-68
2022/02/11 12:30:42;;;;;;;6.18;1.20;;;;;;;-142.75;62.23;78560.91;5071266;28;20397;-68
2022/02/11 12:33:08;;;;;;;6.85;1.10;;;;;;;-142.75;62.92;78679.09;5071250;28;20028;-68
2022/02/11 12:35:34;;;;;;;10.68;1.25;;;;;;;-142.75;64.82;78718.47;5071341;28;20508;-68
2022/02/11 12:38:02;;;;;;;10.70;1.48;;;;;;;-142.75;65.62;78712.56;5070849;28;20472;-67
2022/02/11 12:40:33;;;;;;;8.80;1.35;;;;;;;-142.75;63.09;78665.28;5070923;28;20107;-68
2022/02/11 12:43:00;;;;;;;6.28;1.23;;;;;;;-142.75;61.46;78588.50;5071266;28;20081;-68
2022/02/11 12:45:29;;;;;;;5.70;0.82;;;;;;;-142.75;60.16;78606.22;5069124;28;20044;-68
2022/02/11 12:47:56;;;;;;;11.32;1.23;;;;;;;-142.75;60.37;78556.97;5070558;28;20070;-68
2022/02/11 12:50:32;;;;;;;7.90;1.00;;;;;;;-142.75;59.75;78621.97;5069848;28;20025;-68
2022/02/11 12:52:59;;;;;;;3.90;1.10;;;;;;;-142.75;61.40;78633.78;5069849;28;20119;-69
2022/02/11 12:55:25;;;;;;;7.00;1.38;;;;;;;-142.75;62.12;78685.00;5070850;28;20028;-67
2022/02/11 12:58:00;;;;;;;6.50;1.45;;;;;;;-142.75;64.63;78669.25;5070421;28;20020;-68
2022/02/11 13:00:28;;;;;;;7.83;1.67;;;;;;;-142.75;64.93;78714.53;5070840;28;20402;-68
2022/02/11 13:02:58;;;;;;;8.80;1.52;;;;;;;-142.75;66.15;78791.34;5069352;28;20040;-67
2022/02/11 13:05:26;;;;;;;8.25;1.40;;;;;;;-142.75;66.47;78816.94;5069203;28;20029;-68
2022/02/11 13:07:54;;;;;;;8.20;1.20;;;;;;;-142.75;69.63;78864.22;5070391;28;20032;-67
2022/02/11 13:10:23;;;;;;;12.77;1.23;;;;;;;-142.75;71.56;78878.00;5070650;28;20482;-67
2022/02/11 13:12:57;;;;;;;8.98;1.20;;;;;;;-142.75;72.86;78935.13;5070538;28;20032;-67
2022/02/11 13:15:28;;;;;;;10.90;1.77;;;;;;;-142.75;75.01;78988.31;5069847;28;20028;-67
2022/02/11 13:18:04;;;;;;;13.20;2.00;;;;;;;-142.75;83.51;79051.34;5069825;28;20030;-68
2022/02/11 13:20:32;;;;;;;9.73;1.63;;;;;;;-142.75;94.37;79086.78;5070458;28;20473;-67
2022/02/11 13:22:58;;;;;;;6.43;1.20;;;;;;;-142.75;100.00;79155.72;5069204;28;20059;-68
2022/02/11 13:25:23;;;;;;;;;;;;;;;-142.75;100.00;79167.56;5070661;28;20066;-68
2022/02/11 13:27:54;;;;;;;7.07;1.10;;;;;;;-142.75;100.00;79173.47;5060940;28;19951;-68
2022/02/11 13:30:25;;;;;;;13.70;1.43;;;;;;;-142.75;100.00;79212.84;5049104;28;20483;-68
2022/02/11 13:32:53;;;;;;;10.17;1.73;;;;;;;-142.75;100.00;79187.25;5050097;28;20025;-69
2022/02/11 13:35:18;;;;;;;9.30;1.00;;;;;;;-142.75;100.00;79183.31;5050174;28;20028;-69
2022/02/11 13:37:52;;;;;;;5.63;1.15;;;;;;;-142.75;100.00;79183.31;5049906;28;20029;-67
2022/02/11 13:40:29;;;;;;;5.67;1.23;;;;;;;-142.75;100.00;79208.91;5048813;28;20029;-66
2022/02/11 13:43:07;;;;;;;5.73;1.00;;;;;;;-142.75;100.00;79208.91;5050151;28;20055;-68
2022/02/11 13:45:53;;;;;;;6.83;1.47;;;;;;;-142.75;100.00;79220.75;5074539;22;20684;-68
2022/02/11 13:48:19;;;;;;;7.77;1.10;;;;;;;-142.75;100.00;79230.59;5058599;28;20039;-67
2022/02/11 13:51:04;;;;;;;6.07;1.13;;;;;;;-142.75;100.00;79212.84;5071939;28;20115;-67
2022/02/11 13:53:44;;;;;;;8.17;1.40;;;;;;;-142.75;100.00;79224.69;5061293;28;20568;-68
2022/02/11 13:56:12;;;;;;;8.90;1.37;;;;;;;-142.75;100.00;79218.75;5057567;28;20380;-70
2022/02/11 13:58:39;;;;;;;2.50;1.07;;;;;;;-142.75;100.00;79214.81;5053765;28;20028;-70
2022/02/11 14:01:25;;;;;;;19.40;5.43;;;;;;;-142.75;100.00;79224.69;5058462;28;20063;-67
2022/02/11 14:03:51;;;;;;;12.97;2.33;;;;;;;-142.75;100.00;79244.38;5062453;28;20043;-68
2022/02/11 14:06:18;;;;;;;12.23;4.07;;;;;;;-142.75;100.00;79240.44;5055910;28;20067;-67
2022/02/11 14:08:45;;;;;;;7.37;1.27;;;;;;;-142.75;100.00;79244.38;5062113;28;20021;-68
2022/02/11 14:11:13;;;;;;;8.53;1.50;;;;;;;-142.75;100.00;79238.47;5055601;28;20033;-69
2022/02/11 14:13:39;;;;;;;9.60;2.27;;;;;;;-142.75;100.00;79222.72;5065666;28;20450;-69
2022/02/11 14:16:05;;;;;;;15.30;2.60;;;;;;;-142.75;100.00;79228.63;5059327;28;20029;-67
2022/02/11 14:18:31;;;;;;;9.77;1.30;;;;;;;-142.75;100.00;79212.84;5054750;28;20052;-68
2022/02/11 14:20:56;;;;;;;14.68;2.28;;;;;;;-142.75;100.00;79212.84;5064875;28;20067;-67
2022/02/11 14:23:22;;;;;;;6.85;1.40;;;;;;;-142.75;100.00;79224.69;5056174;28;20397;-69
2022/02/11 14:25:48;;;;;;;9.97;1.53;;;;;;;-142.75;100.00;79199.06;5063663;28;20058;-67
2022/02/11 14:28:14;;;;;;;8.70;1.67;;;;;;;-142.75;100.00;79206.94;5063946;28;20029;-72
2022/02/11 14:30:42;;;;;;;6.33;1.57;;;;;;;-142.75;100.00;79189.22;5064640;28;20032;-70
2022/02/11 14:33:09;;;;;;;5.47;0.90;;;;;;;-142.75;100.00;79191.19;5065505;28;20115;-68
2022/02/11 14:35:34;;;;;;;9.27;1.73;;;;;;;-142.75;100.00;79175.44;5061982;28;20047;-71
2022/02/11 14:38:00;;;;;;;7.20;0.95;;;;;;;-142.75;100.00;79179.38;5071050;28;20455;-68
2022/02/11 14:40:25;;;;;;;5.13;0.80;;;;;;;-142.75;100.00;79189.22;5075772;28;20162;-68
2022/02/11 14:42:51;;;;;;;9.50;1.45;;;;;;;-142.75;100.00;79191.19;5075716;28;20401;-67
2022/02/11 14:45:16;;;;;;;10.45;1.73;;;;;;;-142.75;100.00;79208.91;5061078;28;20017;-66
2022/02/11 14:47:41;;;;;;;11.45;2.78;;;;;;;-142.75;100.00;79204.97;5067102;28;20100;-68
2022/02/11 14:50:08;;;;;;;6.88;1.83;;;;;;;-142.75;100.00;79218.75;5063152;28;20016;-67
2022/02/11 14:52:33;;;;;;;;;;;;;;;-142.75;100.00;79230.59;5072844;28;20028;-67
2022/02/11 14:54:58;;;;;;;9.40;1.53;;;;;;;-142.75;100.00;79248.31;5063339;28;19998;-67